Time;durP1;ratioP1;P1;durP2;ratioP2;P2;SDS_P1;SDS_P2;PMS_P1;PMS_P2;Temp;Humidity;BMP_temperature;BMP_pressure;BME280_temperature;BME280_humidity;BME280_pressure;Samples;Min_cycle;Max_cycle;Signal;HPM_P1;HPM_P2
2023/03/01 00:01:22;;;;;;;17.55;10.20;;;0.30;99.90;;;;;;5078397;28;20028;-69
2023/03/01 00:03:49;;;;;;;18.25;10.40;;;0.30;99.90;;;;;;5076408;28;20238;-69
2023/03/01 00:06:14;;;;;;;16.25;9.63;;;0.30;99.90;;;;;;5094051;28;20067;-69
2023/03/01 00:08:40;;;;;;;19.50;10.60;;;0.20;99.90;;;;;;5076488;28;20436;-69
2023/03/01 00:11:09;;;;;;;20.60;10.37;;;0.20;99.90;;;;;;5094299;28;20046;-68
2023/03/01 00:13:35;;;;;;;17.40;9.65;;;0.20;99.90;;;;;;5093307;28;20039;-68
2023/03/01 00:16:20;;;;;;;20.13;10.68;;;0.20;99.90;;;;;;5093254;28;20024;-68
2023/03/01 00:18:45;;;;;;;19.23;10.25;;;0.20;99.90;;;;;;5093220;28;20025;-69
2023/03/01 00:21:12;;;;;;;17.67;9.98;;;0.20;99.90;;;;;;5093144;28;20016;-69
2023/03/01 00:23:38;;;;;;;18.15;10.27;;;0.20;99.90;;;;;;5079785;28;20032;-68
2023/03/01 00:26:09;;;;;;;;;;;0.20;99.90;;;;;;5080117;28;20028;-69
2023/03/01 00:28:34;;;;;;;25.27;10.63;;;0.20;99.90;;;;;;5079515;28;19904;-69
2023/03/01 00:31:04;;;;;;;18.70;9.73;;;0.20;99.90;;;;;;5080029;28;20097;-68
2023/03/01 00:33:30;;;;;;;19.58;10.45;;;0.20;99.90;;;;;;5079967;28;20024;-69
2023/03/01 00:35:58;;;;;;;18.50;9.53;;;0.20;99.90;;;;;;5078702;28;20030;-68
2023/03/01 00:38:23;;;;;;;23.65;11.18;;;0.20;99.90;;;;;;5097197;28;20032;-68
2023/03/01 00:40:49;;;;;;;17.17;9.97;;;0.20;99.90;;;;;;5096905;28;20093;-69
2023/03/01 00:43:14;;;;;;;20.17;9.73;;;0.20;99.90;;;;;;5097188;28;20020;-68
2023/03/01 00:45:40;;;;;;;16.67;9.63;;;0.20;99.90;;;;;;5096915;28;20019;-68
2023/03/01 00:48:05;;;;;;;18.23;9.97;;;0.20;99.90;;;;;;5097337;28;20036;-68
2023/03/01 00:50:31;;;;;;;18.17;9.83;;;0.20;99.90;;;;;;5096687;28;20046;-69
2023/03/01 00:52:57;;;;;;;19.07;9.47;;;0.30;99.90;;;;;;5078512;28;20481;-69
2023/03/01 00:55:23;;;;;;;19.63;10.00;;;0.20;99.90;;;;;;5097036;28;20077;-68
2023/03/01 00:57:48;;;;;;;19.10;10.00;;;0.30;99.90;;;;;;5096939;28;20109;-68
2023/03/01 01:00:14;;;;;;;18.87;9.90;;;0.30;99.90;;;;;;5096876;28;20491;-68
2023/03/01 01:02:40;;;;;;;18.13;9.33;;;0.30;99.90;;;;;;5096787;28;20385;-68
2023/03/01 01:05:06;;;;;;;17.93;8.63;;;0.30;99.90;;;;;;5096822;28;20266;-68
2023/03/01 01:07:31;;;;;;;16.83;9.48;;;0.20;99.90;;;;;;5078437;28;20028;-68
2023/03/01 01:09:57;;;;;;;20.63;10.37;;;0.20;99.90;;;;;;5096813;28;20024;-68
2023/03/01 01:12:22;;;;;;;22.07;11.27;;;0.20;99.90;;;;;;5096979;28;20024;-69
2023/03/01 01:14:48;;;;;;;17.90;10.27;;;0.20;99.90;;;;;;5096706;28;20027;-69
2023/03/01 01:17:13;;;;;;;16.13;8.97;;;0.20;99.90;;;;;;5078292;28;20031;-69
2023/03/01 01:19:39;;;;;;;20.53;9.77;;;0.10;99.90;;;;;;5096401;28;20028;-68
2023/03/01 01:22:05;;;;;;;18.13;10.07;;;0.10;99.90;;;;;;5096842;28;20410;-70
2023/03/01 01:24:31;;;;;;;15.90;8.97;;;0.10;99.90;;;;;;5095891;28;20025;-68
2023/03/01 01:26:56;;;;;;;20.58;9.93;;;0.10;99.90;;;;;;5096312;28;20032;-68
2023/03/01 01:29:22;;;;;;;16.33;9.83;;;0.20;99.90;;;;;;5096531;28;20032;-69
2023/03/01 01:31:47;;;;;;;17.50;9.67;;;0.10;99.90;;;;;;5078299;28;20408;-68
2023/03/01 01:34:16;;;;;;;19.87;10.27;;;0.10;99.90;;;;;;5094681;28;20051;-69
2023/03/01 01:36:41;;;;;;;19.15;9.68;;;0.10;99.90;;;;;;5097547;28;20065;-69
2023/03/01 01:39:07;;;;;;;17.57;9.70;;;0.20;99.90;;;;;;5100274;28;20024;-70
2023/03/01 01:41:33;;;;;;;18.93;10.27;;;0.20;99.90;;;;;;5099563;28;20031;-69
2023/03/01 01:44:15;;;;;;;17.73;9.85;;;0.10;99.90;;;;;;5099397;28;20028;-69
2023/03/01 01:46:42;;;;;;;16.30;10.10;;;0.10;99.90;;;;;;5097171;28;20054;-69
2023/03/01 01:49:30;;;;;;;19.20;10.45;;;0.10;99.90;;;;;;5096257;28;20077;-70
2023/03/01 01:52:20;;;;;;;18.13;9.75;;;0.10;99.90;;;;;;5078538;28;20123;-69
2023/03/01 01:54:50;;;;;;;16.90;10.10;;;0.10;99.90;;;;;;5078296;28;20072;-69
2023/03/01 01:57:29;;;;;;;18.65;10.27;;;0.10;99.90;;;;;;5078219;28;20425;-69
2023/03/01 01:59:58;;;;;;;19.40;10.57;;;0.10;99.90;;;;;;5096488;28;20035;-69
2023/03/01 02:02:24;;;;;;;21.30;10.55;;;0.10;99.90;;;;;;5096796;28;20020;-69
2023/03/01 02:04:55;;;;;;;22.73;10.23;;;0.10;99.90;;;;;;5082292;28;20117;-69
2023/03/01 02:07:23;;;;;;;16.85;9.85;;;0.10;99.90;;;;;;5100788;28;20032;-69
2023/03/01 02:09:52;;;;;;;22.67;11.02;;;0.10;99.90;;;;;;5081117;28;20564;-69
2023/03/01 02:12:20;;;;;;;20.20;11.10;;;0.10;99.90;;;;;;5081178;28;20039;-69
2023/03/01 02:14:45;;;;;;;21.73;10.70;;;0.10;99.90;;;;;;5098353;28;20107;-68
2023/03/01 02:17:14;;;;;;;22.27;11.17;;;0.10;99.90;;;;;;5098996;28;20438;-67
2023/03/01 02:20:06;;;;;;;20.45;10.25;;;0.00;99.90;;;;;;5097399;28;20434;-68
2023/03/01 02:22:34;;;;;;;20.17;10.45;;;0.10;99.90;;;;;;5080256;28;20069;-69
2023/03/01 02:25:33;;;;;;;19.17;10.13;;;0.00;99.90;;;;;;5099449;28;20461;-68
2023/03/01 02:28:15;;;;;;;19.05;10.98;;;0.00;99.90;;;;;;5098973;28;20110;-68
2023/03/01 02:31:41;;;;;;;17.23;10.18;;;0.00;99.90;;;;;;5081308;28;20048;-69
2023/03/01 02:33:28;;;;;;;18.13;10.65;;;0.00;99.90;;;;;;5095778;28;20032;-69
2023/03/01 02:35:55;;;;;;;21.42;10.82;;;0.00;99.90;;;;;;5095953;28;20043;-69
2023/03/01 02:38:21;;;;;;;22.73;10.50;;;0.00;99.90;;;;;;5097021;28;20104;-69
2023/03/01 02:40:49;;;;;;;19.55;10.63;;;0.00;99.90;;;;;;5072188;28;20033;-68
2023/03/01 02:43:17;;;;;;;20.83;10.73;;;-0.10;99.90;;;;;;5076897;28;20031;-69
2023/03/01 02:45:50;;;;;;;17.40;10.30;;;-0.10;99.90;;;;;;5075379;28;20501;-69
2023/03/01 02:48:17;;;;;;;19.90;10.65;;;-0.10;99.90;;;;;;5079507;28;20062;-69
2023/03/01 02:51:03;;;;;;;19.88;10.82;;;-0.10;99.90;;;;;;5077182;28;20036;-69
2023/03/01 02:53:48;;;;;;;19.38;10.43;;;-0.10;99.90;;;;;;5078437;28;20024;-68
2023/03/01 02:56:13;;;;;;;19.45;10.43;;;-0.20;99.90;;;;;;5076932;28;20438;-68
2023/03/01 02:58:45;;;;;;;19.97;10.70;;;-0.20;99.90;;;;;;5076723;28;20017;-68
2023/03/01 03:01:13;;;;;;;22.27;11.55;;;-0.20;99.90;;;;;;5076789;28;20270;-69
2023/03/01 03:03:39;;;;;;;19.10;10.10;;;-0.20;99.90;;;;;;5075012;28;20031;-68
2023/03/01 03:06:04;;;;;;;22.07;10.63;;;-0.20;99.90;;;;;;5094131;28;20099;-68
2023/03/01 03:08:30;;;;;;;20.90;11.57;;;-0.30;99.90;;;;;;5076210;28;20028;-68
2023/03/01 03:10:55;;;;;;;20.97;11.67;;;-0.30;99.90;;;;;;5094002;28;20904;-68
2023/03/01 03:13:21;;;;;;;20.47;11.00;;;-0.30;99.90;;;;;;5094501;28;20444;-68
2023/03/01 03:15:47;;;;;;;22.45;10.40;;;-0.30;99.90;;;;;;5075610;28;20480;-68
2023/03/01 03:18:17;;;;;;;20.13;11.52;;;-0.30;99.90;;;;;;5094311;28;20161;-68
2023/03/01 03:20:43;;;;;;;24.60;11.80;;;-0.40;99.90;;;;;;5093866;28;20053;-68
2023/03/01 03:23:10;;;;;;;20.25;11.27;;;-0.40;99.90;;;;;;5094234;28;20480;-69
2023/03/01 03:25:37;;;;;;;22.00;10.48;;;-0.40;99.90;;;;;;5093102;28;20412;-69
2023/03/01 03:28:09;;;;;;;22.90;11.45;;;-0.40;99.90;;;;;;5093893;28;20020;-69
2023/03/01 03:30:36;;;;;;;21.52;11.52;;;-0.50;99.90;;;;;;5075601;28;20401;-69
2023/03/01 03:33:03;;;;;;;22.63;11.05;;;-0.50;99.90;;;;;;5075265;28;20028;-68
2023/03/01 03:35:32;;;;;;;22.30;11.68;;;-0.50;99.90;;;;;;5094250;28;20111;-68
2023/03/01 03:38:02;;;;;;;21.08;11.80;;;-0.50;99.90;;;;;;5093119;28;20016;-68
2023/03/01 03:40:50;;;;;;;24.85;12.32;;;-0.50;99.90;;;;;;5075372;28;20078;-68
2023/03/01 03:43:21;;;;;;;21.73;11.38;;;-0.50;99.90;;;;;;5075443;28;20118;-68
2023/03/01 03:45:48;;;;;;;22.75;13.07;;;-0.40;99.90;;;;;;5094014;28;20058;-69
2023/03/01 03:48:15;;;;;;;24.98;12.13;;;-0.40;99.90;;;;;;5078610;28;20468;-68
2023/03/01 03:50:46;;;;;;;28.27;11.05;;;-0.40;99.90;;;;;;5075041;28;20051;-68
2023/03/01 03:53:12;;;;;;;21.50;12.32;;;-0.40;99.90;;;;;;5093701;28;20077;-68
2023/03/01 03:55:41;;;;;;;22.53;12.03;;;-0.40;99.90;;;;;;5093371;28;20020;-68
2023/03/01 03:58:09;;;;;;;23.90;12.27;;;-0.40;99.90;;;;;;5093075;28;20323;-68
2023/03/01 04:00:37;;;;;;;20.98;11.50;;;-0.40;99.90;;;;;;5093486;28;20047;-68
2023/03/01 04:03:03;;;;;;;24.17;12.25;;;-0.50;99.90;;;;;;5075542;28;20109;-68
2023/03/01 04:05:29;;;;;;;21.20;12.20;;;-0.50;99.90;;;;;;5098167;28;20056;-68
2023/03/01 04:08:01;;;;;;;20.77;11.63;;;-0.50;99.90;;;;;;5095364;28;20088;-68
2023/03/01 04:10:28;;;;;;;22.00;11.90;;;-0.50;99.90;;;;;;5094107;28;20038;-68
2023/03/01 04:12:55;;;;;;;25.73;13.60;;;-0.50;99.90;;;;;;5074986;28;20093;-68
2023/03/01 04:15:23;;;;;;;22.65;12.70;;;-0.60;99.90;;;;;;5093552;28;20031;-68
2023/03/01 04:17:51;;;;;;;24.20;12.77;;;-0.60;99.90;;;;;;5093072;28;20020;-69
2023/03/01 04:20:25;;;;;;;25.40;13.32;;;-0.60;99.90;;;;;;5092775;28;20089;-69
2023/03/01 04:23:10;;;;;;;24.55;12.98;;;-0.60;99.90;;;;;;5074961;28;20028;-68
2023/03/01 04:25:45;;;;;;;27.50;13.15;;;-0.60;99.90;;;;;;5093155;28;20384;-69
2023/03/01 04:28:10;;;;;;;25.80;12.80;;;-0.60;99.90;;;;;;5094366;28;20085;-68
2023/03/01 04:30:38;;;;;;;27.43;12.83;;;-0.60;99.90;;;;;;5092923;28;20032;-68
2023/03/01 04:33:05;;;;;;;24.27;12.38;;;-0.60;99.90;;;;;;5074829;28;20469;-68
2023/03/01 04:35:31;;;;;;;26.25;13.00;;;-0.60;99.90;;;;;;5093933;28;20024;-69
2023/03/01 04:37:57;;;;;;;28.48;13.63;;;-0.70;99.90;;;;;;5093629;28;20481;-68
2023/03/01 04:40:22;;;;;;;23.57;12.87;;;-0.70;99.90;;;;;;5093497;28;20032;-69
2023/03/01 04:42:48;;;;;;;22.47;13.47;;;-0.70;99.90;;;;;;5075276;28;20435;-69
2023/03/01 04:45:13;;;;;;;30.13;13.97;;;-0.70;99.90;;;;;;5093425;28;20081;-68
2023/03/01 04:47:40;;;;;;;24.97;13.73;;;-0.70;99.90;;;;;;5093077;28;20059;-68
2023/03/01 04:50:07;;;;;;;23.48;12.80;;;-0.70;99.90;;;;;;5092765;28;20097;-69
2023/03/01 04:52:33;;;;;;;25.40;13.70;;;-0.60;99.90;;;;;;5092844;28;20047;-68
2023/03/01 04:54:58;;;;;;;24.80;13.73;;;-0.60;99.90;;;;;;5093036;28;20476;-69
2023/03/01 04:57:24;;;;;;;24.57;13.30;;;-0.60;99.90;;;;;;5092555;28;20035;-69
2023/03/01 04:59:49;;;;;;;27.87;13.70;;;-0.60;99.90;;;;;;5092679;28;20020;-69
2023/03/01 05:02:15;;;;;;;23.47;12.53;;;-0.60;99.90;;;;;;5092722;28;20031;-68
2023/03/01 05:04:40;;;;;;;23.17;12.87;;;-0.50;99.90;;;;;;5074866;28;20016;-68
2023/03/01 05:07:06;;;;;;;23.07;12.93;;;-0.60;99.90;;;;;;5074713;28;20476;-68
2023/03/01 05:09:31;;;;;;;23.27;13.37;;;-0.60;99.90;;;;;;5076533;28;20055;-68
2023/03/01 05:11:57;;;;;;;26.33;13.83;;;-0.60;99.90;;;;;;5078495;28;20426;-68
2023/03/01 05:14:22;;;;;;;20.97;12.20;;;-0.60;99.90;;;;;;5096480;28;20020;-68
2023/03/01 05:16:48;;;;;;;23.90;13.40;;;-0.80;99.90;;;;;;5078104;28;20020;-68
2023/03/01 05:19:17;;;;;;;26.50;12.40;;;-0.80;99.90;;;;;;5096349;28;20016;-68
2023/03/01 05:22:03;;;;;;;25.73;13.18;;;-0.80;99.90;;;;;;5096269;28;20045;-68
2023/03/01 05:24:35;;;;;;;23.88;12.15;;;-0.80;99.90;;;;;;5078505;28;20016;-69
2023/03/01 05:27:02;;;;;;;26.73;12.27;;;-0.80;99.90;;;;;;5097173;28;20028;-69
2023/03/01 05:29:30;;;;;;;24.90;13.55;;;-0.80;99.90;;;;;;5096389;28;20067;-69
2023/03/01 05:31:58;;;;;;;28.10;13.18;;;-0.80;99.90;;;;;;5078850;28;20058;-68
2023/03/01 05:34:25;;;;;;;25.02;13.95;;;-0.80;99.90;;;;;;5098231;28;20386;-70
2023/03/01 05:36:52;;;;;;;26.08;13.52;;;-0.80;99.90;;;;;;5079467;28;20024;-69
2023/03/01 05:39:21;;;;;;;28.45;13.50;;;-0.80;99.90;;;;;;5078291;28;20020;-69
2023/03/01 05:41:47;;;;;;;33.42;14.65;;;-0.90;99.90;;;;;;5096238;28;20112;-69
2023/03/01 05:44:12;;;;;;;27.25;13.70;;;-0.90;99.90;;;;;;5096338;28;20448;-69
2023/03/01 05:46:38;;;;;;;28.57;13.97;;;-1.00;99.90;;;;;;5096036;28;20038;-70
2023/03/01 05:49:04;;;;;;;25.60;14.17;;;-0.90;99.90;;;;;;5096592;28;20067;-69
2023/03/01 05:51:29;;;;;;;25.75;13.70;;;-1.00;99.90;;;;;;5096088;28;20085;-69
2023/03/01 05:53:55;;;;;;;25.30;13.90;;;-1.00;99.90;;;;;;5096796;28;20043;-74
2023/03/01 05:56:22;;;;;;;31.60;13.83;;;-1.00;99.90;;;;;;5096169;28;20024;-73
2023/03/01 05:58:49;;;;;;;25.80;13.60;;;-1.00;99.90;;;;;;5078111;28;20016;-74
2023/03/01 06:01:14;;;;;;;29.58;14.85;;;-1.00;99.90;;;;;;5078110;28;20027;-76
2023/03/01 06:03:40;;;;;;;30.53;14.03;;;-1.00;99.90;;;;;;5096321;28;20020;-76
2023/03/01 06:06:06;;;;;;;30.52;14.52;;;-1.00;99.90;;;;;;5083023;28;20134;-78
2023/03/01 06:08:32;;;;;;;28.37;13.47;;;-1.10;99.90;;;;;;5084268;28;20028;-76
2023/03/01 06:10:57;;;;;;;29.27;14.47;;;-1.00;99.90;;;;;;5082843;28;20035;-67
2023/03/01 06:13:23;;;;;;;30.87;14.60;;;-1.10;99.90;;;;;;5077366;28;20369;-66
2023/03/01 06:15:49;;;;;;;26.60;13.50;;;-1.10;99.90;;;;;;5076810;28;20064;-68
2023/03/01 06:18:15;;;;;;;29.03;14.57;;;-1.10;99.90;;;;;;5095187;28;20531;-68
2023/03/01 06:20:40;;;;;;;34.03;14.93;;;-1.10;99.90;;;;;;5076721;28;20115;-68
2023/03/01 06:23:06;;;;;;;27.03;13.77;;;-1.10;99.90;;;;;;5095329;28;20032;-69
2023/03/01 06:25:32;;;;;;;30.43;15.60;;;-1.10;99.90;;;;;;5077046;28;20024;-69
2023/03/01 06:27:57;;;;;;;26.17;13.93;;;-1.10;99.90;;;;;;5076717;28;20031;-68
2023/03/01 06:30:25;;;;;;;30.67;14.83;;;-1.10;99.90;;;;;;5076508;28;20028;-69
2023/03/01 06:32:51;;;;;;;27.38;14.27;;;-1.10;99.90;;;;;;5095216;28;20103;-68
2023/03/01 06:35:18;;;;;;;30.42;15.60;;;-1.10;99.90;;;;;;5095167;28;20500;-68
2023/03/01 06:37:45;;;;;;;29.13;14.90;;;-1.10;99.90;;;;;;5094812;28;20029;-69
2023/03/01 06:40:11;;;;;;;32.88;15.63;;;-1.10;99.90;;;;;;5095014;28;20024;-68
2023/03/01 06:42:38;;;;;;;28.98;14.35;;;-1.10;99.90;;;;;;5095276;28;20095;-69
2023/03/01 06:45:06;;;;;;;30.83;14.88;;;-1.10;99.90;;;;;;5076622;28;20471;-68
2023/03/01 06:47:35;;;;;;;28.10;14.68;;;-1.10;99.90;;;;;;5070665;28;20028;-68
2023/03/01 06:50:03;;;;;;;26.90;13.75;;;-1.00;99.90;;;;;;5076072;28;20061;-69
2023/03/01 06:52:29;;;;;;;25.95;13.88;;;-1.00;99.90;;;;;;5094568;28;20059;-69
2023/03/01 06:54:54;;;;;;;29.48;14.77;;;-1.00;99.90;;;;;;5094897;28;20082;-68
2023/03/01 06:57:20;;;;;;;28.20;15.07;;;-1.00;99.90;;;;;;5105878;28;20492;-69
2023/03/01 06:59:47;;;;;;;31.90;15.30;;;-1.00;99.90;;;;;;5103841;28;20092;-68
2023/03/01 07:02:14;;;;;;;26.23;14.20;;;-0.90;99.90;;;;;;5087438;28;20020;-70
2023/03/01 07:04:41;;;;;;;33.65;14.77;;;-0.90;99.90;;;;;;5105491;28;20039;-67
2023/03/01 07:07:06;;;;;;;29.15;14.68;;;-0.80;99.90;;;;;;5103097;28;20020;-67
2023/03/01 07:09:32;;;;;;;29.40;13.97;;;-0.80;99.90;;;;;;5100684;28;20028;-67
2023/03/01 07:11:57;;;;;;;29.10;14.93;;;-0.70;99.90;;;;;;5095341;28;20039;-67
2023/03/01 07:14:26;;;;;;;30.70;14.97;;;-0.70;99.90;;;;;;5094615;28;20381;-67
2023/03/01 07:16:52;;;;;;;32.65;14.15;;;-0.70;99.90;;;;;;5093818;28;20500;-67
2023/03/01 07:19:19;;;;;;;36.47;14.98;;;-0.60;99.90;;;;;;5093981;28;20446;-67
2023/03/01 07:21:44;;;;;;;29.90;14.38;;;-0.50;99.90;;;;;;5094735;28;20050;-66
2023/03/01 07:24:10;;;;;;;29.43;15.27;;;-0.40;99.90;;;;;;5094619;28;20020;-68
2023/03/01 07:26:36;;;;;;;30.13;14.77;;;-0.40;99.90;;;;;;5094288;28;20104;-67
2023/03/01 07:29:04;;;;;;;25.30;14.18;;;-0.40;99.90;;;;;;5094137;28;20498;-65
2023/03/01 07:31:29;;;;;;;30.08;14.77;;;-0.30;99.90;;;;;;5074986;28;20054;-66
2023/03/01 07:33:55;;;;;;;30.57;15.93;;;-0.30;99.90;;;;;;5093649;28;20484;-67
2023/03/01 07:36:20;;;;;;;28.83;14.70;;;-0.20;99.90;;;;;;5094059;28;20034;-66
2023/03/01 07:38:46;;;;;;;27.60;14.33;;;-0.20;99.90;;;;;;5093940;28;20074;-67
2023/03/01 07:41:12;;;;;;;33.30;15.45;;;-0.20;99.90;;;;;;5093864;28;20173;-67
2023/03/01 07:43:38;;;;;;;28.95;15.95;;;-0.10;99.90;;;;;;5093654;28;20555;-67
2023/03/01 07:46:04;;;;;;;30.87;15.27;;;0.00;99.90;;;;;;5096783;28;20363;-66
2023/03/01 07:48:31;;;;;;;28.20;16.02;;;0.10;99.90;;;;;;5083939;28;20047;-66
2023/03/01 07:51:05;;;;;;;28.20;15.68;;;0.10;99.90;;;;;;5088543;28;20032;-66
2023/03/01 07:53:33;;;;;;;28.77;14.75;;;0.20;99.90;;;;;;5088591;28;20462;-66
2023/03/01 07:56:13;;;;;;;28.27;14.40;;;0.30;99.90;;;;;;5089658;28;20016;-67
2023/03/01 07:58:40;;;;;;;29.30;14.73;;;0.30;99.90;;;;;;5074220;28;20020;-66
2023/03/01 08:01:09;;;;;;;31.33;15.45;;;0.40;99.90;;;;;;5066848;28;20028;-66
2023/03/01 08:03:35;;;;;;;27.90;14.90;;;0.50;99.90;;;;;;5075985;28;20028;-67
2023/03/01 08:06:03;;;;;;;30.58;15.77;;;0.60;99.90;;;;;;5095874;28;20512;-66
2023/03/01 08:08:29;;;;;;;29.40;15.00;;;0.60;99.90;;;;;;5094542;28;20035;-66
2023/03/01 08:11:02;;;;;;;27.13;14.23;;;0.60;99.90;;;;;;5078719;28;20021;-67
2023/03/01 08:13:29;;;;;;;27.95;15.13;;;0.70;99.90;;;;;;5093434;28;20020;-65
2023/03/01 08:15:54;;;;;;;29.25;15.32;;;0.80;99.90;;;;;;5095284;28;20077;-66
2023/03/01 08:18:21;;;;;;;25.57;14.47;;;0.90;99.90;;;;;;5093392;28;20040;-64
2023/03/01 08:20:47;;;;;;;26.23;13.45;;;1.10;99.90;;;;;;5093564;28;20158;-67
2023/03/01 08:23:13;;;;;;;32.03;15.82;;;1.10;99.90;;;;;;5093403;28;20496;-67
2023/03/01 08:25:39;;;;;;;26.75;14.68;;;1.20;99.90;;;;;;5093326;28;20112;-67
2023/03/01 08:28:05;;;;;;;28.83;14.50;;;1.20;99.90;;;;;;5094277;28;20073;-67
2023/03/01 08:30:30;;;;;;;32.25;15.43;;;1.10;99.90;;;;;;5093252;28;20028;-67
2023/03/01 08:32:56;;;;;;;34.67;15.40;;;1.20;99.90;;;;;;5075010;28;20036;-67
2023/03/01 08:35:22;;;;;;;27.35;13.65;;;1.30;99.90;;;;;;5092821;28;20366;-67
2023/03/01 08:37:48;;;;;;;32.13;15.03;;;1.30;99.90;;;;;;5074735;28;20028;-67
2023/03/01 08:40:14;;;;;;;30.27;15.23;;;1.30;99.90;;;;;;5074998;28;20020;-67
2023/03/01 08:42:41;;;;;;;31.75;16.65;;;1.40;99.90;;;;;;5093145;28;20032;-68
2023/03/01 08:45:07;;;;;;;28.60;14.55;;;1.50;99.90;;;;;;5095965;28;20030;-67
2023/03/01 08:47:33;;;;;;;33.22;15.95;;;1.60;99.90;;;;;;5097106;28;20072;-68
2023/03/01 08:49:59;;;;;;;27.43;14.53;;;1.60;99.90;;;;;;5078356;28;20035;-68
2023/03/01 08:52:25;;;;;;;29.42;14.32;;;1.70;99.90;;;;;;5096758;28;20322;-67
2023/03/01 08:54:51;;;;;;;28.45;14.48;;;1.70;99.90;;;;;;5072049;28;20052;-67
2023/03/01 08:57:17;;;;;;;29.10;15.10;;;1.80;99.90;;;;;;5076351;28;20477;-68
2023/03/01 08:59:42;;;;;;;26.93;14.50;;;1.80;99.90;;;;;;5076364;28;20032;-67
2023/03/01 09:02:16;;;;;;;27.43;14.37;;;1.90;99.90;;;;;;5076199;28;20023;-69
2023/03/01 09:04:42;;;;;;;29.83;14.30;;;1.90;99.90;;;;;;5058525;28;20059;-68
2023/03/01 09:07:09;;;;;;;24.58;14.20;;;1.90;99.90;;;;;;5096521;28;20063;-67
2023/03/01 09:09:35;;;;;;;28.55;13.70;;;2.00;99.90;;;;;;5096340;28;20024;-68
2023/03/01 09:12:01;;;;;;;31.58;15.82;;;2.00;99.90;;;;;;5096292;28;20146;-68
2023/03/01 09:14:26;;;;;;;26.87;15.13;;;2.10;99.90;;;;;;5097168;28;20063;-67
2023/03/01 09:16:52;;;;;;;29.63;15.03;;;2.20;99.90;;;;;;5079740;28;20507;-67
2023/03/01 09:19:17;;;;;;;29.27;15.53;;;2.30;99.90;;;;;;5096997;28;20028;-68
2023/03/01 09:21:52;;;;;;;28.33;15.23;;;2.30;99.90;;;;;;5078347;28;20093;-67
2023/03/01 09:24:23;;;;;;;31.58;16.42;;;2.40;99.90;;;;;;5077833;28;20073;-67
2023/03/01 09:26:49;;;;;;;27.50;14.70;;;2.70;99.90;;;;;;5096262;28;20057;-68
2023/03/01 09:29:15;;;;;;;;;;;3.70;99.90;;;;;;5096432;28;20513;-68
2023/03/01 09:31:42;;;;;;;25.23;14.27;;;4.80;99.90;;;;;;5096057;28;19904;-68
2023/03/01 09:34:08;;;;;;;27.38;14.40;;;6.30;98.00;;;;;;5095829;28;20511;-68
2023/03/01 09:36:35;;;;;;;25.95;14.57;;;7.20;95.20;;;;;;5077882;28;20067;-67
2023/03/01 09:39:01;;;;;;;27.15;14.32;;;7.50;93.80;;;;;;5095842;28;20032;-68
2023/03/01 09:41:37;;;;;;;24.13;14.90;;;8.20;92.80;;;;;;5095912;28;20096;-68
2023/03/01 09:44:16;;;;;;;23.20;14.73;;;8.10;91.80;;;;;;5095816;28;20023;-67
2023/03/01 09:46:43;;;;;;;26.90;15.95;;;8.30;92.10;;;;;;5077734;28;20119;-68
2023/03/01 09:49:19;;;;;;;24.08;15.10;;;8.30;91.90;;;;;;5077131;28;20088;-67
2023/03/01 09:52:03;;;;;;;25.75;15.65;;;8.50;91.00;;;;;;5078088;28;20529;-67
2023/03/01 09:54:28;;;;;;;23.00;15.00;;;8.10;91.10;;;;;;5076815;28;20032;-68
2023/03/01 09:57:19;;;;;;;26.43;15.57;;;8.10;91.30;;;;;;5095772;28;20465;-67
2023/03/01 09:59:57;;;;;;;26.05;15.13;;;8.90;90.30;;;;;;5083621;28;20087;-71
2023/03/01 10:03:06;;;;;;;26.40;14.45;;;9.40;89.00;;;;;;5081254;28;20024;-72
2023/03/01 10:05:55;;;;;;;25.30;14.55;;;9.90;87.50;;;;;;4979535;28;20523;-71
2023/03/01 10:08:27;;;;;;;24.88;15.25;;;11.20;84.90;;;;;;5095932;28;20032;-71
2023/03/01 10:10:53;;;;;;;24.05;15.38;;;11.10;83.10;;;;;;5077268;28;20054;-71
2023/03/01 10:13:26;;;;;;;23.63;15.48;;;10.50;83.50;;;;;;5095256;28;20020;-71
2023/03/01 10:16:03;;;;;;;24.17;14.88;;;11.40;81.40;;;;;;5076953;28;20024;-71
2023/03/01 10:18:32;;;;;;;26.08;16.05;;;12.70;78.50;;;;;;5095167;28;20536;-70
2023/03/01 10:21:09;;;;;;;24.25;15.30;;;13.70;75.80;;;;;;5076765;28;20028;-72
2023/03/01 10:23:35;;;;;;;;;;;14.80;72.00;;;;;;5077661;28;20050;-71
2023/03/01 10:26:07;;;;;;;21.02;14.98;;;13.70;70.90;;;;;;5095027;28;20410;-70
2023/03/01 10:29:01;;;;;;;23.20;16.02;;;13.90;71.20;;;;;;5077191;28;20028;-71
2023/03/01 10:31:43;;;;;;;25.45;15.32;;;13.10;72.00;;;;;;5076954;28;20393;-71
2023/03/01 10:34:18;;;;;;;24.52;16.35;;;12.80;72.50;;;;;;5095107;28;20024;-71
2023/03/01 10:36:49;;;;;;;23.02;14.35;;;13.50;72.00;;;;;;5076723;28;20024;-71
2023/03/01 10:39:18;;;;;;;23.15;15.55;;;12.50;71.80;;;;;;5094761;28;20102;-71
2023/03/01 10:42:18;;;;;;;25.52;15.70;;;12.50;73.30;;;;;;5094950;28;20531;-70
2023/03/01 10:44:46;;;;;;;21.25;14.27;;;12.90;72.40;;;;;;5076581;28;20491;-71
2023/03/01 10:47:16;;;;;;;22.38;15.23;;;13.60;71.10;;;;;;5094373;28;20024;-70
2023/03/01 10:50:04;;;;;;;24.63;15.15;;;14.70;69.90;;;;;;5094541;28;20485;-69
2023/03/01 10:52:32;;;;;;;;;;;15.50;67.60;;;;;;5096464;28;20166;-70
2023/03/01 10:55:03;;;;;;;25.27;16.13;;;15.30;66.20;;;;;;5077661;28;19915;-70
2023/03/01 10:57:39;;;;;;;23.17;14.75;;;13.70;68.10;;;;;;5087651;28;20028;-70
2023/03/01 11:00:22;;;;;;;25.58;16.13;;;13.00;69.20;;;;;;5093838;28;20032;-70
2023/03/01 11:03:12;;;;;;;23.05;15.45;;;12.10;71.30;;;;;;5073958;28;20021;-70
2023/03/01 11:05:51;;;;;;;23.88;14.73;;;12.40;71.00;;;;;;5063565;28;20024;-70
2023/03/01 11:08:49;;;;;;;25.58;16.02;;;11.40;72.30;;;;;;5075723;28;20031;-70
2023/03/01 11:11:31;;;;;;;23.25;14.98;;;12.30;72.30;;;;;;5075456;28;20063;-70
2023/03/01 11:14:17;;;;;;;23.23;15.15;;;12.00;71.50;;;;;;5075998;28;20028;-70
2023/03/01 11:16:45;;;;;;;25.08;15.35;;;11.10;72.70;;;;;;5075836;28;20614;-71
2023/03/01 11:19:11;;;;;;;25.10;15.80;;;9.80;74.80;;;;;;5093960;28;20081;-70
2023/03/01 11:21:57;;;;;;;28.67;15.77;;;8.10;79.20;;;;;;5075654;28;20527;-74
2023/03/01 11:24:33;;;;;;;25.00;15.55;;;7.40;82.10;;;;;;5075714;28;20055;-69
2023/03/01 11:27:03;;;;;;;26.17;16.73;;;7.00;84.10;;;;;;5075608;28;20028;-70
2023/03/01 11:29:38;;;;;;;26.55;15.77;;;6.70;85.30;;;;;;5076359;28;20035;-70
2023/03/01 11:32:08;;;;;;;26.02;15.50;;;6.40;86.70;;;;;;5076209;28;20115;-69
2023/03/01 11:34:51;;;;;;;28.10;16.45;;;6.30;87.70;;;;;;5094122;28;20446;-69
2023/03/01 11:37:26;;;;;;;27.77;15.82;;;6.20;88.30;;;;;;5073545;28;20025;-69
2023/03/01 11:40:12;;;;;;;30.92;17.13;;;6.30;88.40;;;;;;5055407;28;20115;-70
2023/03/01 11:42:52;;;;;;;30.88;17.55;;;6.00;89.60;;;;;;5074099;28;20024;-69
2023/03/01 11:45:22;;;;;;;26.75;15.85;;;6.00;90.10;;;;;;5055543;28;20449;-70
2023/03/01 11:48:25;;;;;;;29.05;16.85;;;6.00;90.30;;;;;;5079191;28;20098;-70
2023/03/01 11:50:54;;;;;;;26.92;15.88;;;6.00;90.40;;;;;;5079455;28;20062;-69
2023/03/01 11:54:08;;;;;;;28.30;16.45;;;5.90;90.60;;;;;;5079468;28;20028;-69
2023/03/01 11:56:40;;;;;;;29.25;17.45;;;6.10;90.70;;;;;;5041456;28;20493;-69
2023/03/01 11:59:37;;;;;;;28.13;16.00;;;6.20;90.40;;;;;;5082964;28;20050;-70
2023/03/01 12:02:36;;;;;;;28.70;15.68;;;6.30;90.30;;;;;;5078228;28;20027;-70
2023/03/01 12:05:24;;;;;;;26.73;16.02;;;6.20;90.50;;;;;;5078803;28;20501;-69
2023/03/01 12:08:08;;;;;;;25.23;14.95;;;6.10;90.50;;;;;;5093944;28;20058;-70
2023/03/01 12:11:12;;;;;;;29.80;16.35;;;6.00;90.70;;;;;;5093361;28;20036;-69
2023/03/01 12:14:02;;;;;;;27.98;15.80;;;6.10;90.80;;;;;;4976961;28;20042;-69
2023/03/01 12:16:32;;;;;;;26.73;15.88;;;6.10;90.90;;;;;;4977717;28;20037;-70
2023/03/01 12:19:35;;;;;;;27.42;15.77;;;6.20;90.80;;;;;;4975631;28;20042;-70
2023/03/01 12:22:30;;;;;;;28.88;16.40;;;6.20;90.80;;;;;;4975728;28;20121;-69
2023/03/01 12:25:33;;;;;;;32.95;16.40;;;6.20;90.80;;;;;;4993596;28;20077;-70
2023/03/01 12:28:04;;;;;;;31.70;16.20;;;6.40;90.80;;;;;;4956256;28;20058;-69
2023/03/01 12:30:51;;;;;;;31.35;17.33;;;6.50;90.60;;;;;;4995751;28;20062;-69
2023/03/01 12:33:41;;;;;;;24.85;14.90;;;6.50;90.40;;;;;;4978807;28;20039;-70
2023/03/01 12:36:34;;;;;;;28.30;16.35;;;6.30;90.60;;;;;;4990845;28;20026;-70
2023/03/01 12:39:16;;;;;;;27.40;14.82;;;6.40;90.80;;;;;;4997721;28;20030;-70
2023/03/01 12:41:56;;;;;;;24.55;15.18;;;6.50;90.50;;;;;;4997494;28;20023;-69
2023/03/01 12:44:35;;;;;;;27.67;15.60;;;6.60;90.50;;;;;;4996524;28;20138;-70
2023/03/01 12:47:27;;;;;;;26.42;15.23;;;6.80;90.50;;;;;;4997501;28;20030;-70
2023/03/01 12:50:04;;;;;;;26.33;15.55;;;6.80;90.00;;;;;;5015978;28;20098;-70
2023/03/01 12:52:38;;;;;;;24.40;15.90;;;6.80;90.10;;;;;;5061115;28;20028;-69